Time;durP1;ratioP1;P1;durP2;ratioP2;P2;SDS_P1;SDS_P2;PMS_P1;PMS_P2;Temp;Humidity;BMP_temperature;BMP_pressure;BME280_temperature;BME280_humidity;BME280_pressure;Samples;Min_cycle;Max_cycle;Signal;HPM_P1;HPM_P2
2022/09/06 00:01:38;;;;;;;;;;;20.60;62.90;;;;;;5145087;27;19927;-48
2022/09/06 00:04:03;;;;;;;;;;;21.20;63.00;;;;;;5140856;27;19927;-47
2022/09/06 00:06:29;;;;;;;;;;;21.40;60.40;;;;;;5146598;27;19923;-45
2022/09/06 00:08:55;;;;;;;;;;;20.80;57.50;;;;;;5122614;27;19923;-47
2022/09/06 00:11:21;;;;;;;;;;;20.40;55.60;;;;;;5122646;27;20939;-45
2022/09/06 00:13:46;;;;;;;;;;;20.20;55.00;;;;;;5127851;27;19923;-47
2022/09/06 00:16:17;;;;;;;;;;;20.00;53.90;;;;;;5139858;27;20358;-49
2022/09/06 00:18:42;;;;;;;;;;;19.80;53.60;;;;;;5137828;27;19923;-47
2022/09/06 00:21:27;;;;;;;;;;;20.20;60.10;;;;;;5145831;27;19991;-47
2022/09/06 00:23:53;;;;;;;;;;;20.90;62.50;;;;;;5140590;27;19927;-45
2022/09/06 00:26:19;;;;;;;;;;;21.60;62.10;;;;;;5141012;27;20023;-52
2022/09/06 00:28:45;;;;;;;;;;;21.10;59.20;;;;;;5127738;27;20525;-47
2022/09/06 00:31:15;;;;;;;;;;;20.60;57.10;;;;;;5140911;27;19940;-45
2022/09/06 00:33:41;;;;;;;;;;;20.30;55.30;;;;;;5146265;27;19923;-46
2022/09/06 00:36:09;;;;;;;;;;;19.90;54.30;;;;;;5118250;27;20324;-50
2022/09/06 00:38:35;;;;;;;;;;;20.00;55.00;;;;;;5139603;27;19929;-48
2022/09/06 00:41:00;;;;;;;;;;;20.40;61.60;;;;;;5145762;27;19932;-45
2022/09/06 00:43:26;;;;;;;;;;;21.10;62.80;;;;;;5140668;27;20447;-46
2022/09/06 00:45:52;;;;;;;;;;;21.70;60.60;;;;;;5140660;27;20254;-45
2022/09/06 00:48:18;;;;;;;;;;;20.90;58.30;;;;;;5146319;27;19924;-48
2022/09/06 00:50:44;;;;;;;;;;;20.50;56.50;;;;;;5140737;27;20407;-46
2022/09/06 00:53:09;;;;;;;;;;;20.30;54.60;;;;;;5125978;27;20346;-48
2022/09/06 00:55:35;;;;;;;;;;;19.90;54.60;;;;;;5137652;27;19923;-46
2022/09/06 00:58:01;;;;;;;;;;;20.00;53.10;;;;;;5139891;27;19930;-50
2022/09/06 01:00:27;;;;;;;;;;;20.00;56.70;;;;;;5146024;27;19931;-47
2022/09/06 01:02:52;;;;;;;;;;;20.60;62.00;;;;;;5120073;27;20365;-48
2022/09/06 01:05:18;;;;;;;;;;;21.20;62.70;;;;;;5140623;27;20278;-45
2022/09/06 01:08:03;;;;;;;;;;;21.50;60.30;;;;;;5128389;27;19962;-45
2022/09/06 01:10:31;;;;;;;;;;;20.80;57.80;;;;;;5125480;27;19929;-46
2022/09/06 01:12:57;;;;;;;;;;;20.50;55.70;;;;;;5119898;27;20036;-47
2022/09/06 01:15:34;;;;;;;;;;;20.20;54.60;;;;;;5148261;27;19923;-45
2022/09/06 01:18:20;;;;;;;;;;;19.90;53.80;;;;;;5143554;27;19941;-50
2022/09/06 01:21:05;;;;;;;;;;;20.50;60.80;;;;;;5143860;27;20465;-49
2022/09/06 01:23:31;;;;;;;;;;;21.20;62.70;;;;;;5130445;27;19933;-46
2022/09/06 01:26:09;;;;;;;;;;;21.60;60.20;;;;;;5143611;27;19923;-46
2022/09/06 01:28:44;;;;;;;;;;;20.70;57.90;;;;;;5143424;27;19978;-47
2022/09/06 01:31:22;;;;;;;;;;;20.20;55.80;;;;;;5145300;27;19923;-47
2022/09/06 01:34:06;;;;;;;;;;;20.10;54.50;;;;;;5122955;27;19941;-50
2022/09/06 01:36:33;;;;;;;;;;;19.90;53.50;;;;;;5143400;27;19939;-46
2022/09/06 01:39:00;;;;;;;;;;;20.10;58.70;;;;;;5148965;27;20301;-47
2022/09/06 01:41:26;;;;;;;;;;;20.80;62.30;;;;;;5143348;27;19923;-44
2022/09/06 01:43:52;;;;;;;;;;;21.50;62.00;;;;;;5143468;27;20080;-46
2022/09/06 01:46:32;;;;;;;;;;;21.20;59.40;;;;;;5129032;27;20352;-45
2022/09/06 01:49:06;;;;;;;;;;;20.50;57.20;;;;;;5140447;27;20289;-46
2022/09/06 01:51:55;;;;;;;;;;;20.20;55.40;;;;;;5141502;27;20374;-46
2022/09/06 01:54:30;;;;;;;;;;;19.80;54.40;;;;;;5130130;27;19944;-47
2022/09/06 01:56:56;;;;;;;;;;;19.80;54.00;;;;;;5143266;27;20374;-46
2022/09/06 01:59:30;;;;;;;;;;;20.30;61.10;;;;;;5143307;27;20270;-47
2022/09/06 02:02:13;;;;;;;;;;;21.00;62.90;;;;;;5148623;27;19923;-46
2022/09/06 02:04:49;;;;;;;;;;;21.70;60.90;;;;;;5124707;27;19931;-46
2022/09/06 02:07:17;;;;;;;;;;;20.80;58.30;;;;;;5120057;27;20198;-49
2022/09/06 02:09:44;;;;;;;;;;;20.40;55.90;;;;;;5146443;27;19928;-46
2022/09/06 02:12:12;;;;;;;;;;;20.20;54.90;;;;;;5142635;27;20346;-46
2022/09/06 02:14:39;;;;;;;;;;;20.00;53.90;;;;;;5144713;27;19926;-54
2022/09/06 02:17:05;;;;;;;;;;;19.90;53.40;;;;;;5129067;27;20017;-48
2022/09/06 02:19:43;;;;;;;;;;;20.30;60.60;;;;;;5142698;27;20341;-47
2022/09/06 02:22:09;;;;;;;;;;;21.00;62.60;;;;;;5147952;27;19927;-46
2022/09/06 02:24:36;;;;;;;;;;;21.70;61.60;;;;;;5123624;27;19929;-47
2022/09/06 02:27:01;;;;;;;;;;;21.10;58.50;;;;;;5120539;27;19923;-46
2022/09/06 02:29:27;;;;;;;;;;;20.50;56.60;;;;;;5147283;27;20393;-46
2022/09/06 02:32:05;;;;;;;;;;;20.30;55.20;;;;;;5142422;27;20349;-47
2022/09/06 02:34:31;;;;;;;;;;;20.00;54.40;;;;;;5142470;27;20429;-45
2022/09/06 02:36:56;;;;;;;;;;;19.80;53.70;;;;;;5147937;27;19931;-47
2022/09/06 02:39:23;;;;;;;;;;;20.00;58.80;;;;;;5142455;27;19925;-47
2022/09/06 02:41:49;;;;;;;;;;;20.80;61.80;;;;;;5142459;27;19927;-46
2022/09/06 02:44:15;;;;;;;;;;;21.50;61.60;;;;;;5144850;27;20327;-45
2022/09/06 02:46:41;;;;;;;;;;;21.20;59.30;;;;;;5140481;27;20293;-45
2022/09/06 02:49:06;;;;;;;;;;;20.70;57.20;;;;;;5147523;27;19927;-46
2022/09/06 02:51:37;;;;;;;;;;;20.40;55.10;;;;;;5142212;27;19923;-45
2022/09/06 02:54:02;;;;;;;;;;;19.90;54.70;;;;;;5142234;27;19955;-45
2022/09/06 02:56:28;;;;;;;;;;;19.90;53.40;;;;;;5147866;27;19931;-49
2022/09/06 02:58:54;;;;;;;;;;;20.10;58.20;;;;;;5142266;27;19927;-47
2022/09/06 03:01:20;;;;;;;;;;;20.70;62.50;;;;;;5141662;27;20466;-51
2022/09/06 03:03:46;;;;;;;;;;;21.30;62.90;;;;;;5143569;27;19922;-43
2022/09/06 03:06:12;;;;;;;;;;;21.40;60.40;;;;;;5121716;27;19924;-44
2022/09/06 03:08:37;;;;;;;;;;;20.60;57.70;;;;;;5128719;27;19930;-45
2022/09/06 03:11:03;;;;;;;;;;;20.20;56.10;;;;;;5141829;27;19923;-45
2022/09/06 03:13:29;;;;;;;;;;;20.20;54.60;;;;;;5141777;27;19927;-47
2022/09/06 03:15:55;;;;;;;;;;;20.00;54.40;;;;;;5147347;27;19976;-47
2022/09/06 03:18:24;;;;;;;;;;;20.00;57.90;;;;;;5141891;27;20006;-49
2022/09/06 03:20:50;;;;;;;;;;;20.60;63.10;;;;;;5138920;27;20084;-46
2022/09/06 03:23:17;;;;;;;;;;;21.30;64.00;;;;;;5145175;27;20365;-44
2022/09/06 03:25:43;;;;;;;;;;;21.40;61.50;;;;;;5141378;27;19933;-46
2022/09/06 03:28:09;;;;;;;;;;;20.80;58.70;;;;;;5144250;27;19928;-53
2022/09/06 03:30:35;;;;;;;;;;;20.30;57.00;;;;;;5144080;27;19927;-46
2022/09/06 03:33:00;;;;;;;;;;;20.20;55.40;;;;;;5122409;27;19930;-46
2022/09/06 03:35:26;;;;;;;;;;;20.10;54.30;;;;;;5147198;27;19924;-48
2022/09/06 03:37:52;;;;;;;;;;;19.90;54.70;;;;;;5141323;27;20034;-48
2022/09/06 03:40:18;;;;;;;;;;;20.40;61.80;;;;;;5137179;27;19931;-50
2022/09/06 03:42:45;;;;;;;;;;;21.00;64.80;;;;;;5146116;27;20389;-46
2022/09/06 03:45:11;;;;;;;;;;;21.80;63.70;;;;;;5141312;27;19972;-49
2022/09/06 03:47:37;;;;;;;;;;;21.10;60.30;;;;;;5141405;27;19927;-52
2022/09/06 03:50:03;;;;;;;;;;;20.60;57.60;;;;;;5147142;27;20085;-45
2022/09/06 03:52:29;;;;;;;;;;;20.30;56.00;;;;;;5123067;27;20010;-46
2022/09/06 03:54:54;;;;;;;;;;;20.00;54.90;;;;;;5146981;27;20388;-47
2022/09/06 03:57:20;;;;;;;;;;;19.90;54.20;;;;;;5138537;27;20273;-47
2022/09/06 03:59:46;;;;;;;;;;;19.80;56.40;;;;;;5138985;27;19940;-46
2022/09/06 04:02:12;;;;;;;;;;;20.50;62.90;;;;;;5146344;27;19977;-45
2022/09/06 04:04:37;;;;;;;;;;;21.10;64.90;;;;;;5141106;27;19927;-47
2022/09/06 04:07:03;;;;;;;;;;;21.70;64.20;;;;;;5122662;27;20358;-46
2022/09/06 04:09:29;;;;;;;;;;;20.90;60.50;;;;;;5146605;27;20341;-46
2022/09/06 04:11:55;;;;;;;;;;;20.60;58.10;;;;;;5140982;27;20398;-45
2022/09/06 04:14:21;;;;;;;;;;;20.30;56.20;;;;;;5146472;27;19939;-47
2022/09/06 04:16:46;;;;;;;;;;;20.00;55.40;;;;;;5137076;27;19956;-48
2022/09/06 04:19:12;;;;;;;;;;;19.80;54.60;;;;;;5140144;27;20383;-45
2022/09/06 04:21:38;;;;;;;;;;;19.80;56.60;;;;;;5146131;27;19927;-46
2022/09/06 04:24:04;;;;;;;;;;;20.40;62.90;;;;;;5140780;27;19923;-45
2022/09/06 04:26:30;;;;;;;;;;;21.00;65.40;;;;;;5140857;27;19923;-47
2022/09/06 04:28:56;;;;;;;;;;;21.70;64.90;;;;;;5146529;27;20303;-45
2022/09/06 04:31:21;;;;;;;;;;;21.20;60.70;;;;;;5141116;27;19930;-46
2022/09/06 04:33:47;;;;;;;;;;;20.60;58.60;;;;;;5143931;27;19934;-46
2022/09/06 04:36:13;;;;;;;;;;;20.20;56.70;;;;;;5138360;27;19931;-46
2022/09/06 04:38:40;;;;;;;;;;;19.90;55.40;;;;;;5140248;27;19927;-47
2022/09/06 04:41:06;;;;;;;;;;;19.90;54.60;;;;;;5145953;27;19923;-46
2022/09/06 04:43:32;;;;;;;;;;;20.00;59.30;;;;;;5144351;27;19927;-47
2022/09/06 04:46:05;;;;;;;;;;;20.70;64.70;;;;;;5125842;27;20275;-47
2022/09/06 04:48:31;;;;;;;;;;;21.30;65.50;;;;;;5149766;27;19975;-49
2022/09/06 04:50:57;;;;;;;;;;;21.40;62.80;;;;;;5144368;27;19922;-46
2022/09/06 04:53:22;;;;;;;;;;;20.50;59.60;;;;;;5141275;27;20367;-56
2022/09/06 04:55:48;;;;;;;;;;;20.40;57.20;;;;;;5148211;27;19927;-48
2022/09/06 04:58:14;;;;;;;;;;;20.00;55.80;;;;;;5143906;27;20378;-45
2022/09/06 05:00:43;;;;;;;;;;;19.80;55.00;;;;;;5130397;27;20343;-45
2022/09/06 05:03:09;;;;;;;;;;;19.90;58.20;;;;;;5144186;27;20017;-45
2022/09/06 05:05:34;;;;;;;;;;;20.50;64.10;;;;;;5143894;27;19923;-45
2022/09/06 05:08:00;;;;;;;;;;;21.10;66.00;;;;;;5128672;27;19923;-45
2022/09/06 05:10:26;;;;;;;;;;;21.60;64.30;;;;;;5123194;27;19931;-51
2022/09/06 05:12:52;;;;;;;;;;;20.80;60.80;;;;;;5140999;27;19927;-44
2022/09/06 05:15:18;;;;;;;;;;;20.50;58.20;;;;;;5148866;27;19999;-46
2022/09/06 05:17:44;;;;;;;;;;;20.10;56.80;;;;;;5125015;27;19959;-50
2022/09/06 05:20:10;;;;;;;;;;;20.10;55.30;;;;;;5149232;27;19937;-45
2022/09/06 05:22:36;;;;;;;;;;;20.00;56.00;;;;;;5143796;27;19923;-45
2022/09/06 05:25:02;;;;;;;;;;;20.50;63.00;;;;;;5143561;27;20000;-46
2022/09/06 05:27:27;;;;;;;;;;;21.10;65.60;;;;;;5148897;27;20410;-45
2022/09/06 05:29:53;;;;;;;;;;;21.60;64.50;;;;;;5139837;27;19985;-45
2022/09/06 05:32:19;;;;;;;;;;;20.90;60.90;;;;;;5142916;27;20556;-47
2022/09/06 05:34:45;;;;;;;;;;;20.50;58.30;;;;;;5148977;27;19924;-46
2022/09/06 05:37:10;;;;;;;;;;;20.20;56.70;;;;;;5143513;27;19930;-46
2022/09/06 05:39:36;;;;;;;;;;;19.90;55.70;;;;;;5148964;27;19930;-45
2022/09/06 05:42:05;;;;;;;;;;;19.80;54.70;;;;;;5143329;27;19948;-46
2022/09/06 05:44:34;;;;;;;;;;;19.80;55.20;;;;;;5143347;27;20009;-49
2022/09/06 05:47:00;;;;;;;;;;;20.30;62.70;;;;;;5128613;27;19931;-47
2022/09/06 05:49:27;;;;;;;;;;;20.90;65.40;;;;;;5140492;27;19972;-46
2022/09/06 05:51:53;;;;;;;;;;;21.60;65.20;;;;;;5124368;27;20880;-47
2022/09/06 05:54:19;;;;;;;;;;;21.10;61.50;;;;;;5147731;27;19923;-48
2022/09/06 05:56:45;;;;;;;;;;;20.60;58.70;;;;;;5143211;27;20018;-46
2022/09/06 05:59:10;;;;;;;;;;;20.20;56.80;;;;;;5144329;27;19927;-53
2022/09/06 06:01:36;;;;;;;;;;;20.00;55.70;;;;;;5148135;27;19927;-46
2022/09/06 06:04:03;;;;;;;;;;;19.80;56.50;;;;;;5123920;27;20376;-45
2022/09/06 06:06:30;;;;;;;;;;;20.40;63.20;;;;;;5145242;27;20169;-48
2022/09/06 06:08:56;;;;;;;;;;;21.00;65.90;;;;;;5141300;27;19971;-47
2022/09/06 06:11:22;;;;;;;;;;;21.60;65.50;;;;;;5142519;27;19927;-46
2022/09/06 06:13:47;;;;;;;;;;;21.00;61.20;;;;;;5148433;27;19964;-46
2022/09/06 06:16:14;;;;;;;;;;;20.40;58.70;;;;;;5142895;27;19976;-46
2022/09/06 06:18:40;;;;;;;;;;;20.20;56.50;;;;;;5124561;27;20384;-46
2022/09/06 06:21:09;;;;;;;;;;;20.00;55.60;;;;;;5129751;27;19923;-45
2022/09/06 06:23:35;;;;;;;;;;;19.80;54.90;;;;;;5141950;27;19923;-50
2022/09/06 06:26:01;;;;;;;;;;;20.00;57.50;;;;;;5144542;27;20464;-51
2022/09/06 06:28:27;;;;;;;;;;;20.50;63.80;;;;;;5142175;27;19927;-45
2022/09/06 06:30:53;;;;;;;;;;;21.10;66.00;;;;;;5142617;27;19983;-45
2022/09/06 06:33:19;;;;;;;;;;;21.60;64.20;;;;;;5148150;27;21261;-45
2022/09/06 06:36:01;;;;;;;;;;;20.90;60.70;;;;;;5142566;27;19966;-45
2022/09/06 06:38:33;;;;;;;;;;;20.40;58.70;;;;;;5142566;27;19930;-45
2022/09/06 06:40:59;;;;;;;;;;;20.20;56.60;;;;;;5148049;27;20021;-45
2022/09/06 06:43:25;;;;;;;;;;;20.10;55.20;;;;;;5138749;27;19930;-46
2022/09/06 06:45:51;;;;;;;;;;;19.80;54.70;;;;;;5141022;27;19937;-49
2022/09/06 06:48:17;;;;;;;;;;;20.20;61.50;;;;;;5147706;27;19924;-51
2022/09/06 06:50:42;;;;;;;;;;;20.80;65.30;;;;;;5142476;27;19923;-46
2022/09/06 06:53:08;;;;;;;;;;;21.50;65.50;;;;;;5147831;27;20378;-45
2022/09/06 06:55:34;;;;;;;;;;;21.20;62.30;;;;;;5142337;27;19923;-44
2022/09/06 06:58:00;;;;;;;;;;;20.70;59.20;;;;;;5142362;27;19923;-44
2022/09/06 07:00:26;;;;;;;;;;;20.60;57.10;;;;;;5146228;27;19950;-55
2022/09/06 07:02:52;;;;;;;;;;;20.30;55.80;;;;;;5138924;27;19931;-49
2022/09/06 07:05:18;;;;;;;;;;;20.00;55.10;;;;;;5140563;27;20105;-45
2022/09/06 07:07:43;;;;;;;;;;;19.90;54.50;;;;;;5129059;27;19927;-46
2022/09/06 07:10:09;;;;;;;;;;;20.20;61.00;;;;;;5142044;27;19923;-47
2022/09/06 07:12:35;;;;;;;;;;;20.90;64.40;;;;;;5146342;27;20458;-52
2022/09/06 07:15:01;;;;;;;;;;;21.50;65.20;;;;;;5124811;27;19960;-46
2022/09/06 07:17:27;;;;;;;;;;;21.20;61.90;;;;;;5141958;27;19934;-45
2022/09/06 07:19:53;;;;;;;;;;;20.80;59.50;;;;;;5143930;27;19931;-48
2022/09/06 07:22:19;;;;;;;;;;;20.50;57.10;;;;;;5140114;27;19923;-46
2022/09/06 07:24:45;;;;;;;;;;;20.20;55.90;;;;;;5141525;27;19923;-46
2022/09/06 07:27:10;;;;;;;;;;;20.00;55.10;;;;;;5147198;27;19923;-45
2022/09/06 07:29:36;;;;;;;;;;;19.90;54.50;;;;;;5141712;27;20370;-46
2022/09/06 07:32:02;;;;;;;;;;;20.00;58.70;;;;;;5144037;27;20324;-53
2022/09/06 07:34:28;;;;;;;;;;;20.60;63.90;;;;;;5145269;27;19966;-46
2022/09/06 07:36:55;;;;;;;;;;;21.30;65.10;;;;;;5140847;27;19981;-49
2022/09/06 07:39:21;;;;;;;;;;;21.70;63.50;;;;;;5143080;27;20052;-48
2022/09/06 07:41:47;;;;;;;;;;;21.00;59.80;;;;;;5141075;27;20046;-45
2022/09/06 07:44:13;;;;;;;;;;;20.60;57.40;;;;;;5141469;27;19931;-44
2022/09/06 07:46:38;;;;;;;;;;;20.30;56.10;;;;;;5147117;27;19983;-46
2022/09/06 07:49:04;;;;;;;;;;;20.10;55.10;;;;;;5141629;27;20389;-46
2022/09/06 07:51:30;;;;;;;;;;;19.90;54.70;;;;;;5141371;27;19967;-46
2022/09/06 07:53:56;;;;;;;;;;;20.00;57.70;;;;;;5146906;27;20707;-47
2022/09/06 07:56:22;;;;;;;;;;;20.70;63.40;;;;;;5138635;27;19927;-46
2022/09/06 07:58:48;;;;;;;;;;;21.20;65.00;;;;;;5144664;27;19938;-46
2022/09/06 08:01:14;;;;;;;;;;;21.60;62.90;;;;;;5140994;27;20315;-46
2022/09/06 08:03:40;;;;;;;;;;;20.90;59.70;;;;;;5141206;27;19971;-47
2022/09/06 08:06:06;;;;;;;;;;;20.50;57.80;;;;;;5146715;27;20396;-45
2022/09/06 08:08:32;;;;;;;;;;;20.20;56.40;;;;;;5141249;27;19974;-47
2022/09/06 08:10:58;;;;;;;;;;;20.10;55.50;;;;;;5141142;27;20589;-45
2022/09/06 08:13:24;;;;;;;;;;;20.00;54.60;;;;;;5146606;27;19923;-49
2022/09/06 08:15:56;;;;;;;;;;;20.00;56.90;;;;;;5118156;27;19927;-47
2022/09/06 08:18:22;;;;;;;;;;;20.60;63.30;;;;;;5148975;27;19934;-54
2022/09/06 08:20:47;;;;;;;;;;;21.20;64.90;;;;;;5145322;27;20374;-46
2022/09/06 08:23:13;;;;;;;;;;;21.80;63.70;;;;;;5144668;27;20480;-46
2022/09/06 08:25:39;;;;;;;;;;;21.00;60.60;;;;;;5150325;27;19923;-47
2022/09/06 08:28:05;;;;;;;;;;;20.60;58.30;;;;;;5145135;27;19927;-49
2022/09/06 08:30:31;;;;;;;;;;;20.40;56.20;;;;;;5144663;27;19923;-45
2022/09/06 08:32:57;;;;;;;;;;;20.00;55.90;;;;;;5147275;27;19929;-45
2022/09/06 08:35:23;;;;;;;;;;;20.10;54.50;;;;;;5142275;27;20445;-46
2022/09/06 08:37:48;;;;;;;;;;;19.80;54.30;;;;;;5146973;27;19927;-54
2022/09/06 08:40:16;;;;;;;;;;;20.00;58.60;;;;;;5147444;27;19930;-50
2022/09/06 08:42:42;;;;;;;;;;;20.70;63.90;;;;;;5144508;27;19967;-49
2022/09/06 08:45:11;;;;;;;;;;;21.30;65.00;;;;;;5131560;27;19965;-49
2022/09/06 08:47:37;;;;;;;;;;;21.40;62.40;;;;;;5126175;27;20422;-47
2022/09/06 08:50:04;;;;;;;;;;;20.80;59.40;;;;;;5144133;27;19927;-45
2022/09/06 08:52:36;;;;;;;;;;;20.40;57.60;;;;;;5126625;27;20355;-46
2022/09/06 08:55:17;;;;;;;;;;;20.30;56.20;;;;;;5143429;27;20331;-46
2022/09/06 08:57:52;;;;;;;;;;;20.20;54.90;;;;;;5144009;27;19927;-46
2022/09/06 09:00:18;;;;;;;;;;;20.20;54.20;;;;;;5149596;27;19938;-46
2022/09/06 09:02:45;;;;;;;;;;;20.00;58.20;;;;;;5143832;27;19923;-47
2022/09/06 09:05:19;;;;;;;;;;;20.70;63.50;;;;;;5144128;27;20105;-46
2022/09/06 09:07:58;;;;;;;;;;;21.30;64.90;;;;;;5149541;27;19930;-47
2022/09/06 09:10:33;;;;;;;;;;;21.70;62.90;;;;;;5102705;27;19923;-45
2022/09/06 09:12:59;;;;;;;;;;;20.90;59.50;;;;;;5124378;27;19966;-45
2022/09/06 09:15:26;;;;;;;;;;;20.60;57.30;;;;;;5128733;27;20461;-45
2022/09/06 09:17:52;;;;;;;;;;;20.40;56.20;;;;;;5143887;27;20006;-46
2022/09/06 09:20:18;;;;;;;;;;;20.30;55.00;;;;;;5148971;27;19975;-52
2022/09/06 09:22:43;;;;;;;;;;;20.20;54.60;;;;;;5124349;27;19930;-47
2022/09/06 09:25:11;;;;;;;;;;;20.10;54.30;;;;;;5125014;27;19923;-46
2022/09/06 09:27:38;;;;;;;;;;;20.30;62.30;;;;;;5128303;27;19923;-53
2022/09/06 09:30:05;;;;;;;;;;;21.00;64.60;;;;;;5140287;27;19923;-48
2022/09/06 09:32:34;;;;;;;;;;;21.70;64.50;;;;;;5143228;27;19924;-47
2022/09/06 09:35:19;;;;;;;;;;;21.20;60.60;;;;;;5149168;27;19923;-46
2022/09/06 09:37:44;;;;;;;;;;;20.80;58.50;;;;;;5143507;27;19927;-45
2022/09/06 09:40:13;;;;;;;;;;;20.60;56.60;;;;;;5143366;27;20181;-46
2022/09/06 09:42:39;;;;;;;;;;;20.30;56.00;;;;;;5148977;27;19927;-45
2022/09/06 09:45:23;;;;;;;;;;;20.20;55.20;;;;;;5143366;27;20446;-45
2022/09/06 09:47:49;;;;;;;;;;;20.10;54.20;;;;;;5138789;27;19927;-47
2022/09/06 09:50:26;;;;;;;;;;;20.00;56.00;;;;;;5148055;27;20393;-47
2022/09/06 09:52:51;;;;;;;;;;;20.60;62.60;;;;;;5143039;27;19923;-46
2022/09/06 09:55:20;;;;;;;;;;;21.20;65.20;;;;;;5109244;27;20013;-53
2022/09/06 09:57:46;;;;;;;;;;;21.50;63.40;;;;;;5130126;27;19927;-46
2022/09/06 10:00:12;;;;;;;;;;;21.00;60.10;;;;;;5143418;27;19930;-46
2022/09/06 10:02:41;;;;;;;;;;;20.60;58.10;;;;;;5129701;27;20072;-46
2022/09/06 10:05:16;;;;;;;;;;;20.50;56.50;;;;;;5121405;27;20015;-47
2022/09/06 10:07:42;;;;;;;;;;;20.20;55.80;;;;;;5140899;27;20184;-45
2022/09/06 10:10:12;;;;;;;;;;;20.10;55.30;;;;;;5148291;27;19927;-45
2022/09/06 10:12:38;;;;;;;;;;;20.00;54.40;;;;;;5143005;27;19923;-45
2022/09/06 10:15:05;;;;;;;;;;;20.00;54.40;;;;;;5142879;27;19930;-48
2022/09/06 10:17:34;;;;;;;;;;;20.20;60.10;;;;;;5148586;27;19936;-48
2022/09/06 10:20:06;;;;;;;;;;;20.80;64.30;;;;;;5142925;27;19926;-48
2022/09/06 10:22:41;;;;;;;;;;;21.40;65.00;;;;;;5141505;27;19966;-52
2022/09/06 10:25:07;;;;;;;;;;;21.40;62.10;;;;;;5144842;27;20384;-46
2022/09/06 10:27:33;;;;;;;;;;;20.90;59.00;;;;;;5142005;27;19926;-45
2022/09/06 10:30:06;;;;;;;;;;;20.70;57.20;;;;;;5129105;27;19934;-52
2022/09/06 10:32:41;;;;;;;;;;;20.50;56.10;;;;;;5146133;27;20373;-45
2022/09/06 10:35:25;;;;;;;;;;;20.20;55.40;;;;;;5142281;27;19987;-46
2022/09/06 10:38:01;;;;;;;;;;;20.20;54.70;;;;;;5125983;27;20022;-56
2022/09/06 10:40:31;;;;;;;;;;;20.00;54.30;;;;;;5128573;27;20014;-49
2022/09/06 10:42:58;;;;;;;;;;;20.10;56.30;;;;;;5137557;27;21388;-47
2022/09/06 10:45:35;;;;;;;;;;;20.60;62.90;;;;;;5147015;27;19975;-48
2022/09/06 10:48:03;;;;;;;;;;;21.30;64.60;;;;;;5127364;27;20130;-48
2022/09/06 10:50:35;;;;;;;;;;;21.80;63.30;;;;;;5123978;27;19970;-46
2022/09/06 10:53:04;;;;;;;;;;;21.20;60.40;;;;;;5129083;27;19979;-45
2022/09/06 10:55:31;;;;;;;;;;;20.70;58.30;;;;;;5142326;27;19945;-46
2022/09/06 10:58:00;;;;;;;;;;;20.60;56.40;;;;;;5142340;27;19952;-44
2022/09/06 11:00:26;;;;;;;;;;;20.40;55.40;;;;;;5124563;27;20296;-50
2022/09/06 11:02:55;;;;;;;;;;;20.30;54.70;;;;;;5140247;27;20122;-46
2022/09/06 11:05:28;;;;;;;;;;;20.20;54.60;;;;;;5141683;27;20529;-47
2022/09/06 11:08:04;;;;;;;;;;;20.10;54.30;;;;;;5128977;27;20414;-46
2022/09/06 11:10:30;;;;;;;;;;;20.00;55.10;;;;;;5123336;27;19933;-46
2022/09/06 11:12:58;;;;;;;;;;;20.60;62.00;;;;;;5142076;27;20161;-46
2022/09/06 11:15:24;;;;;;;;;;;21.20;64.60;;;;;;5147180;27;19927;-46
2022/09/06 11:18:09;;;;;;;;;;;21.80;63.60;;;;;;5121480;27;19923;-49
2022/09/06 11:20:42;;;;;;;;;;;21.00;60.50;;;;;;5139326;27;20397;-46
2022/09/06 11:23:23;;;;;;;;;;;20.60;58.20;;;;;;5146783;27;19975;-47
2022/09/06 11:25:49;;;;;;;;;;;20.60;56.20;;;;;;5141736;27;19927;-45
2022/09/06 11:28:16;;;;;;;;;;;20.40;55.40;;;;;;5142101;27;19945;-54
2022/09/06 11:30:43;;;;;;;;;;;20.20;54.90;;;;;;5147577;27;20290;-48
2022/09/06 11:33:27;;;;;;;;;;;20.10;54.70;;;;;;5123435;27;19994;-47
2022/09/06 11:35:55;;;;;;;;;;;20.00;54.20;;;;;;5125065;27;20309;-55
2022/09/06 11:38:22;;;;;;;;;;;20.40;61.00;;;;;;5123026;27;19934;-48
2022/09/06 11:40:51;;;;;;;;;;;21.10;64.40;;;;;;5140990;27;20426;-47
2022/09/06 11:43:17;;;;;;;;;;;21.70;64.40;;;;;;5110527;27;20397;-45
2022/09/06 11:45:43;;;;;;;;;;;21.30;60.80;;;;;;5141627;27;20022;-45
2022/09/06 11:48:32;;;;;;;;;;;20.90;58.40;;;;;;5141524;27;19930;-46
2022/09/06 11:50:59;;;;;;;;;;;20.80;56.50;;;;;;5146432;27;20374;-45
2022/09/06 11:53:26;;;;;;;;;;;20.40;55.80;;;;;;5141368;27;20633;-44
2022/09/06 11:55:58;;;;;;;;;;;20.20;55.30;;;;;;5118963;27;19948;-48
2022/09/06 11:58:31;;;;;;;;;;;20.30;54.50;;;;;;5145541;27;19923;-48
2022/09/06 12:01:13;;;;;;;;;;;20.10;54.50;;;;;;5141055;27;19927;-46
2022/09/06 12:03:42;;;;;;;;;;;20.50;61.30;;;;;;5141226;27;20373;-46
2022/09/06 12:06:17;;;;;;;;;;;21.20;64.40;;;;;;5146415;27;19923;-47
2022/09/06 12:08:43;;;;;;;;;;;21.80;63.20;;;;;;5141539;27;20355;-47
2022/09/06 12:11:21;;;;;;;;;;;21.20;59.90;;;;;;5122873;27;20125;-46
2022/09/06 12:13:48;;;;;;;;;;;20.70;57.80;;;;;;5143540;27;19937;-47
2022/09/06 12:16:14;;;;;;;;;;;20.60;56.40;;;;;;5120611;27;20534;-46
2022/09/06 12:18:46;;;;;;;;;;;20.40;55.20;;;;;;5122294;27;20006;-46
2022/09/06 12:21:31;;;;;;;;;;;20.20;55.20;;;;;;5142510;27;20392;-48
2022/09/06 12:23:57;;;;;;;;;;;20.10;54.80;;;;;;5141090;27;19933;-46
2022/09/06 12:26:41;;;;;;;;;;;20.10;54.40;;;;;;5122164;27;19930;-45
2022/09/06 12:29:08;;;;;;;;;;;20.20;53.80;;;;;;5146645;27;19931;-46
2022/09/06 12:31:36;;;;;;;;;;;20.30;61.70;;;;;;5138724;27;19981;-47
2022/09/06 12:34:06;;;;;;;;;;;21.10;64.00;;;;;;5139000;27;19923;-55
2022/09/06 12:36:32;;;;;;;;;;;21.80;64.00;;;;;;5145926;27;19927;-47
2022/09/06 12:39:02;;;;;;;;;;;21.10;60.20;;;;;;5140932;27;19936;-45
2022/09/06 12:41:29;;;;;;;;;;;20.70;57.90;;;;;;5146301;27;19980;-46
2022/09/06 12:43:55;;;;;;;;;;;20.60;56.70;;;;;;5140590;27;19935;-48
2022/09/06 12:46:21;;;;;;;;;;;20.40;55.60;;;;;;5140757;27;20031;-46
2022/09/06 12:49:19;;;;;;;;;;;20.30;55.30;;;;;;5146288;27;19971;-45
2022/09/06 12:51:45;;;;;;;;;;;20.20;54.70;;;;;;5080046;27;19926;-45
2022/09/06 12:54:20;;;;;;;;;;;19.90;55.20;;;;;;5121046;27;20362;-46
2022/09/06 12:56:46;;;;;;;;;;;20.30;60.00;;;;;;5146004;27;19923;-47
2022/09/06 12:59:13;;;;;;;;;;;21.00;64.40;;;;;;5140799;27;19971;-47
2022/09/06 13:01:40;;;;;;;;;;;21.60;64.90;;;;;;5140421;27;19923;-46
2022/09/06 13:04:07;;;;;;;;;;;21.30;61.90;;;;;;5149265;27;19927;-46
2022/09/06 13:06:35;;;;;;;;;;;20.80;59.30;;;;;;5144188;27;19923;-48
2022/09/06 13:09:01;;;;;;;;;;;20.70;57.40;;;;;;5122534;27;19927;-48
2022/09/06 13:11:36;;;;;;;;;;;20.40;56.90;;;;;;5129006;27;20386;-48
2022/09/06 13:14:08;;;;;;;;;;;20.30;55.70;;;;;;5139592;27;19930;-48
2022/09/06 13:16:36;;;;;;;;;;;20.20;55.40;;;;;;5125577;27;20025;-52
2022/09/06 13:19:12;;;;;;;;;;;20.00;55.10;;;;;;5148779;27;20041;-44
2022/09/06 13:21:40;;;;;;;;;;;20.00;55.10;;;;;;5143851;27;19979;-48
2022/09/06 13:24:18;;;;;;;;;;;20.10;59.60;;;;;;5148950;27;20271;-46
2022/09/06 13:26:44;;;;;;;;;;;20.80;64.90;;;;;;5144971;27;19950;-47
2022/09/06 13:29:16;;;;;;;;;;;21.40;66.20;;;;;;5121599;27;19927;-45
2022/09/06 13:31:43;;;;;;;;;;;21.60;63.90;;;;;;5148810;27;19926;-45
2022/09/06 13:34:09;;;;;;;;;;;21.00;60.60;;;;;;5124962;27;20390;-46
2022/09/06 13:36:35;;;;;;;;;;;20.80;58.70;;;;;;5143753;27;19930;-50
2022/09/06 13:39:03;;;;;;;;;;;20.40;57.50;;;;;;5148908;27;19984;-46
2022/09/06 13:41:29;;;;;;;;;;;20.30;56.70;;;;;;5143345;27;19923;-46
2022/09/06 13:44:04;;;;;;;;;;;20.30;56.00;;;;;;5143567;27;20425;-45
2022/09/06 13:46:31;;;;;;;;;;;20.30;55.00;;;;;;5144303;27;20022;-47
2022/09/06 13:48:56;;;;;;;;;;;20.20;54.80;;;;;;5142400;27;19927;-47
2022/09/06 13:51:22;;;;;;;;;;;20.20;60.40;;;;;;5145795;27;20009;-52
2022/09/06 13:53:48;;;;;;;;;;;20.90;64.80;;;;;;5146497;27;20366;-46
2022/09/06 13:56:15;;;;;;;;;;;21.40;66.80;;;;;;5143382;27;19923;-45
2022/09/06 13:58:41;;;;;;;;;;;21.60;65.00;;;;;;5148644;27;20367;-47
2022/09/06 14:01:08;;;;;;;;;;;21.00;61.40;;;;;;5143295;27;19948;-46
2022/09/06 14:03:34;;;;;;;;;;;20.60;58.50;;;;;;5121945;27;20022;-47
2022/09/06 14:06:00;;;;;;;;;;;20.50;57.40;;;;;;5127579;27;19927;-47
2022/09/06 14:08:26;;;;;;;;;;;20.30;56.80;;;;;;5142676;27;19931;-49
2022/09/06 14:10:52;;;;;;;;;;;20.10;56.20;;;;;;5142973;27;19929;-47
2022/09/06 14:13:18;;;;;;;;;;;20.10;55.10;;;;;;5129917;27;19930;-45
2022/09/06 14:15:47;;;;;;;;;;;20.20;60.20;;;;;;5142146;27;20390;-45
2022/09/06 14:18:13;;;;;;;;;;;20.80;65.50;;;;;;5148471;27;19923;-47
2022/09/06 14:20:39;;;;;;;;;;;21.40;67.20;;;;;;5124484;27;20405;-47
2022/09/06 14:23:05;;;;;;;;;;;21.60;64.40;;;;;;5138466;27;19997;-47